Map

Track Data

SID SEASON NUMBER BASIN SUBBASIN NAME ISO_TIME NATURE LAT LON WMO_WIND WMO_PRES WMO_AGENCY TRACK_TYPE DIST2LAND LANDFALL IFLAG USA_AGENCY USA_ATCF_ID USA_LAT USA_LON USA_RECORD USA_STATUS USA_WIND USA_PRES USA_SSHS USA_R34_NE USA_R34_SE USA_R34_SW USA_R34_NW USA_R50_NE USA_R50_SE USA_R50_SW USA_R50_NW USA_R64_NE USA_R64_SE USA_R64_SW USA_R64_NW USA_POCI USA_ROCI USA_RMW USA_EYE TOKYO_LAT TOKYO_LON TOKYO_GRADE TOKYO_WIND TOKYO_PRES TOKYO_R50_DIR TOKYO_R50_LONG TOKYO_R50_SHORT TOKYO_R30_DIR TOKYO_R30_LONG TOKYO_R30_SHORT TOKYO_LAND CMA_LAT CMA_LON CMA_CAT CMA_WIND CMA_PRES HKO_LAT HKO_LON HKO_CAT HKO_WIND HKO_PRES NEWDELHI_LAT NEWDELHI_LON NEWDELHI_GRADE NEWDELHI_WIND NEWDELHI_PRES NEWDELHI_CI NEWDELHI_DP NEWDELHI_POCI REUNION_LAT REUNION_LON REUNION_TYPE REUNION_WIND REUNION_PRES REUNION_TNUM REUNION_CI REUNION_RMW REUNION_R34_NE REUNION_R34_SE REUNION_R34_SW REUNION_R34_NW REUNION_R50_NE REUNION_R50_SE REUNION_R50_SW REUNION_R50_NW REUNION_R64_NE REUNION_R64_SE REUNION_R64_SW REUNION_R64_NW BOM_LAT BOM_LON BOM_TYPE BOM_WIND BOM_PRES BOM_TNUM BOM_CI BOM_RMW BOM_R34_NE BOM_R34_SE BOM_R34_SW BOM_R34_NW BOM_R50_NE BOM_R50_SE BOM_R50_SW BOM_R50_NW BOM_R64_NE BOM_R64_SE BOM_R64_SW BOM_R64_NW BOM_ROCI BOM_POCI BOM_EYE BOM_POS_METHOD BOM_PRES_METHOD NADI_LAT NADI_LON NADI_CAT NADI_WIND NADI_PRES WELLINGTON_LAT WELLINGTON_LON WELLINGTON_WIND WELLINGTON_PRES DS824_LAT DS824_LON DS824_STAGE DS824_WIND DS824_PRES TD9636_LAT TD9636_LON TD9636_STAGE TD9636_WIND TD9636_PRES TD9635_LAT TD9635_LON TD9635_WIND TD9635_PRES TD9635_ROCI NEUMANN_LAT NEUMANN_LON NEUMANN_CLASS NEUMANN_WIND NEUMANN_PRES MLC_LAT MLC_LON MLC_CLASS MLC_WIND MLC_PRES USA_GUST BOM_GUST BOM_GUST_PER REUNION_GUST REUNION_GUST_PER USA_SEAHGT USA_SEARAD_NE USA_SEARAD_SE USA_SEARAD_SW USA_SEARAD_NW STORM_SPEED STORM_DIR
1848112S07084 1848 7 SI MM NOT_NAMED 1848-04-21 06:00:00 NR -6.70000 83.8000 spur-split 1456 1453 _____O________ -1 -6.70000 83.8000 99 9.90000 4 234
1848112S07084 1848 7 SI MM NOT_NAMED 1848-04-21 09:00:00 NR -6.80890 83.6491 spur-split 1461 1461 _____P________ -1 -6.80890 83.6491 99 4 234
1848112S07084 1848 7 SI MM NOT_NAMED 1848-04-21 12:00:00 NR -6.92049 83.4982 spur-split 1470 1470 _____P________ -1 -6.92049 83.4982 99 4 232
1848112S07084 1848 7 SI MM NOT_NAMED 1848-04-21 15:00:00 NR -7.03751 83.3474 spur-split 1476 1476 _____P________ -1 -7.03751 83.3474 99 4 231
1848112S07084 1848 7 SI MM NOT_NAMED 1848-04-21 18:00:00 NR -7.16271 83.1970 spur-split 1496 1493 _____P________ -1 -7.16271 83.1970 99 4 229
1848112S07084 1848 7 SI MM NOT_NAMED 1848-04-21 21:00:00 NR -7.29881 83.0469 spur-split 1502 1502 _____P________ -1 -7.29881 83.0469 99 4 226
1848112S07084 1848 7 SI MM NOT_NAMED 1848-04-22 00:00:00 NR -7.44857 82.8973 spur-split 1512 1512 _____P________ -1 -7.44857 82.8973 99 4 223
1848112S07084 1848 7 SI MM NOT_NAMED 1848-04-22 03:00:00 NR -7.61472 82.7483 spur-split 1530 1530 _____P________ -1 -7.61472 82.7483 99 5 220
1848112S07084 1848 7 SI MM NOT_NAMED 1848-04-22 06:00:00 NR -7.80000 82.6000 spur-split 1551 1551 _____O________ -1 -7.80000 82.6000 99 9.90000 5 217
1848112S07084 1848 7 SI MM NOT_NAMED 1848-04-22 09:00:00 NR -8.00618 82.4535 spur-split 1571 1570 _____P________ -1 -8.00618 82.4535 99 5 213
1848112S07084 1848 7 SI MM NOT_NAMED 1848-04-22 12:00:00 NR -8.23112 82.3143 spur-split 1591 1591 _____P________ -1 -8.23112 82.3143 99 5 209
1848112S07084 1848 7 SI MM NOT_NAMED 1848-04-22 15:00:00 NR -8.47167 82.1889 spur-split 1623 1623 _____P________ -1 -8.47167 82.1889 99 5 205
1848112S07084 1848 7 SI MM NOT_NAMED 1848-04-22 18:00:00 NR -8.72474 82.0840 spur-split 1644 1644 _____P________ -1 -8.72474 82.0840 99 6 199
1848112S07084 1848 7 SI MM NOT_NAMED 1848-04-22 21:00:00 NR -8.98721 82.0060 spur-split 1676 1676 _____P________ -1 -8.98721 82.0060 99 5 192
1848112S07084 1848 7 SI MM NOT_NAMED 1848-04-23 00:00:00 NR -9.25598 81.9615 spur-split 1710 1710 _____P________ -1 -9.25598 81.9615 99 5 185
1848112S07084 1848 7 SI MM NOT_NAMED 1848-04-23 03:00:00 NR -9.52794 81.9573 spur-split 1732 1732 _____P________ -1 -9.52794 81.9573 99 5 176
1848112S07084 1848 7 SI MM NOT_NAMED 1848-04-23 06:00:00 NR -9.80000 82.0000 spur-split 1766 1766 _____O________ -1 -9.80000 82.0000 99 9.90000 6 167
1848112S07084 1848 7 SI MM NOT_NAMED 1848-04-23 09:00:00 NR -10.0615 82.0768 spur-split 1800 1800 _____P________ -1 -10.0615 82.0768 99 6 160
1848112S07084 1848 7 SI MM NOT_NAMED 1848-04-23 12:00:00 NR -10.3255 82.1988 spur-split 1823 1823 _____P________ -1 -10.3255 82.1988 99 6 152
1848112S07084 1848 7 SI MM NOT_NAMED 1848-04-23 15:00:00 NR -10.5910 82.3627 spur-split 1859 1859 _____P________ -1 -10.5910 82.3627 99 6 146
1848112S07084 1848 7 SI MM NOT_NAMED 1848-04-23 18:00:00 NR -10.8567 82.5654 spur-split 1895 1895 _____P________ -1 -10.8567 82.5654 99 7 141
1848112S07084 1848 7 SI MM NOT_NAMED 1848-04-23 21:00:00 NR -11.1217 82.8036 spur-split 1920 1920 _____P________ -1 -11.1217 82.8036 99 7 137
1848112S07084 1848 7 SI MM NOT_NAMED 1848-04-24 00:00:00 NR -11.3846 83.0743 spur-split 1958 1958 _____P________ -1 -11.3846 83.0743 99 8 133
1848112S07084 1848 7 SI MM NOT_NAMED 1848-04-24 03:00:00 NR -11.6444 83.3742 spur-split 1985 1985 _____P________ -1 -11.6444 83.3742 99 8 130
1848112S07084 1848 7 SI MM NOT_NAMED 1848-04-24 06:00:00 NR -11.9000 83.7000 spur-split 2023 2014 _____O________ -1 -11.9000 83.7000 99 9.90000 9 128
1848112S07084 1848 7 SI MM NOT_NAMED 1848-04-24 09:00:00 NR -12.1707 84.0637 spur-split 2012 1998 _____P________ -1 -12.1707 84.0637 99 9 126
1848112S07084 1848 7 SI MM NOT_NAMED 1848-04-24 12:00:00 NR -12.4399 84.4633 spur-split 1989 1974 _____P________ -1 -12.4399 84.4633 99 10 124
1848112S07084 1848 7 SI MM NOT_NAMED 1848-04-24 15:00:00 NR -12.7036 84.8863 spur-split 1974 1954 _____P________ -1 -12.7036 84.8863 99 10 122
1848112S07084 1848 7 SI MM NOT_NAMED 1848-04-24 18:00:00 NR -12.9577 85.3198 spur-split 1961 1935 _____P________ -1 -12.9577 85.3198 99 10 120
1848112S07084 1848 7 SI MM NOT_NAMED 1848-04-24 21:00:00 NR -13.1982 85.7509 spur-split 1934 1924 _____P________ -1 -13.1982 85.7509 99 9 119
1848112S07084 1848 7 SI MM NOT_NAMED 1848-04-25 00:00:00 NR -13.4213 86.1666 spur-split 1916 1908 _____P________ -1 -13.4213 86.1666 99 9 119
1848112S07084 1848 7 SI MM NOT_NAMED 1848-04-25 03:00:00 NR -13.6231 86.5540 spur-split 1900 1892 _____P________ -1 -13.6231 86.5540 99 8 118
1848112S07084 1848 7 SI MM NOT_NAMED 1848-04-25 06:00:00 NR -13.8000 86.9000 spur-split 1892 1877 _____O________ -1 -13.8000 86.9000 99 9.90000 7 118
1848112S07084 1848 7 SI MM NOT_NAMED 1848-04-25 09:00:00 NR -13.9495 87.1948 spur-split 1877 1870 _____P________ -1 -13.9495 87.1948 99 6 117
1848112S07084 1848 7 SI MM NOT_NAMED 1848-04-25 12:00:00 NR -14.0740 87.4417 spur-split 1878 1864 _____P________ -1 -14.0740 87.4417 99 5 117
1848112S07084 1848 7 SI MM NOT_NAMED 1848-04-25 15:00:00 NR -14.1773 87.6476 spur-split 1872 1857 _____P________ -1 -14.1773 87.6476 99 4 117
1848112S07084 1848 7 SI MM NOT_NAMED 1848-04-25 18:00:00 NR -14.2629 87.8192 spur-split 1866 1851 _____P________ -1 -14.2629 87.8192 99 3 117
1848112S07084 1848 7 SI MM NOT_NAMED 1848-04-25 21:00:00 NR -14.3345 87.9634 spur-split 1851 1851 _____P________ -1 -14.3345 87.9634 99 3 117
1848112S07084 1848 7 SI MM NOT_NAMED 1848-04-26 00:00:00 NR -14.3955 88.0870 spur-split 1853 1846 _____P________ -1 -14.3955 88.0870 99 3 117
1848112S07084 1848 7 SI MM NOT_NAMED 1848-04-26 03:00:00 NR -14.4495 88.1969 spur-split 1846 1846 _____P________ -1 -14.4495 88.1969 99 2 117
1848112S07084 1848 7 SI MM NOT_NAMED 1848-04-26 06:00:00 NR -14.5000 88.3000 spur-split 1847 _____O________ -1 -14.5000 88.3000 99 9.90000 2 117

About IBTrACS Database

This database is a web-friendly format of International Best Track Archive for Climate Stewardship (IBTrACS), a global best track data archive curated by NOAA dating back to 1842.

Updated: 2021-10-08